Nearby METAR Reports


KANE - Minneapls/Blaine, Minnesota, USA
Distance from station: ESE 8mi, 13km
Updated: 09/19/2019 3:45pm
Partly cloudy
Partly cloudy
 Wind from calm
Wind: Calm
Temperature: 82°F , 28°C
Heat Index: 83°F , 28°C
Dew Point: 63°F , 17°C
Humidity: 51%
Barometer: 29.97 inHg , 1014.9 hPa
Clouds: Partly cloudy
Visibility: 10 miles , 16 km
Cloud details: Partly cloudy 25000 ft
2019/09/19 20:45 KANE 192045Z 00000KT 10SM SCT250 28/17 A2997
KMIC - Mnpls/Crystal, Minnesota, USA
Distance from station: S 8mi, 14km
Updated: 09/19/2019 3:53pm
Clear
Clear
 Wind from ESE
Wind: ESE 5 mph , 7 km/h
Temperature: 84°F , 29°C
Heat Index: 84°F , 29°C
Dew Point: 61°F , 16°C
Humidity: 45%
Barometer: 29.96 inHg , 1014.6 hPa
Clouds: Clear
Visibility: 10 miles , 16 km
2019/09/19 20:53 KMIC 192053Z 12004KT 10SM CLR 29/16 A2996 RMK AO2 SLP140 T02890161 56012
 
KMSP - Minneapolis, Minnesota, USA
Distance from station: SSE 22mi, 35km
Updated: 09/19/2019 3:53pm
Few Clouds
Few Clouds
 Wind from varies
Wind: varies 3 mph , 6 km/h
Temperature: 82°F , 28°C
Heat Index: 82°F , 28°C
Dew Point: 61°F , 16°C
Humidity: 48%
Barometer: 29.97 inHg , 1014.9 hPa
Clouds: Few Clouds
Visibility: 10 miles , 16 km
Cloud details: Few Clouds 25000 ft
2019/09/19 20:53 KMSP 192053Z VRB03KT 10SM FEW250 28/16 A2997 RMK AO2 SLP144 T02780156 56012
KSTP - St. Paul, Minnesota, USA
Distance from station: SE 23mi, 38km
Updated: 09/19/2019 3:53pm
Clear
Clear
 Wind from SE
Wind: SE 3 mph , 6 km/h
Temperature: 82°F , 28°C
Heat Index: 83°F , 28°C
Dew Point: 63°F , 17°C
Humidity: 51%
Barometer: 29.97 inHg , 1014.9 hPa
Clouds: Clear
Visibility: 10 miles , 16 km
2019/09/19 20:53 KSTP 192053Z 13003KT 10SM CLR 28/17 A2997 RMK AO2 SLP143 T02780172 56011
 
KCFE - Buffalo Muni, Minnesota, USA
Distance from station: W 24mi, 38km
Updated: 09/19/2019 4:16pm
Clear
Clear
 
Temperature: 82°F , 28°C
Heat Index: 82°F , 28°C
Dew Point: 61°F , 16°C
Humidity: 48%
Barometer: 29.99 inHg , 1015.6 hPa
Clouds: Clear
Visibility: 10 miles , 16 km
2019/09/19 21:16 KCFE 192116Z 10SM CLR 28/16 A2999 RMK AO2 T02750162
KFCM - Mnpls/Flying Cld, Minnesota, USA
Distance from station: S 25mi, 40km
Updated: 09/19/2019 3:53pm
Clear
Clear
 Wind from varies
Wind: varies 3 mph , 6 km/h
Temperature: 82°F , 28°C
Heat Index: 83°F , 28°C
Dew Point: 63°F , 17°C
Humidity: 51%
Barometer: 29.96 inHg , 1014.6 hPa
Clouds: Clear
Visibility: 10 miles , 16 km
2019/09/19 20:53 KFCM 192053Z VRB03KT 10SM CLR 28/17 A2996 RMK AO2 SLP142 T02830167 56010
 
KCBG - Cambridge Muni, Minnesota, USA
Distance from station: N 27mi, 43km
Updated: 09/19/2019 4:16pm
Clear
Clear
 Wind from SSW
Wind: SSW 5 mph , 7 km/h
Temperature: 90°F , 32°C
Heat Index: 93°F , 34°C
Dew Point: 66°F , 19°C
Humidity: 46%
Barometer: 29.98 inHg , 1015.2 hPa
Clouds: Clear
Visibility: 10 miles , 16 km
2019/09/19 21:16 KCBG 192116Z AUTO 21004KT 10SM CLR 32/19 A2998 RMK AO2
KPNM - Princeton Muni, Minnesota, USA
Distance from station: NNW 27mi, 44km
Updated: 09/19/2019 4:19pm
Clear
Clear
 Wind from calm
Wind: Calm
Temperature: 84°F , 29°C
Heat Index: 85°F , 29°C
Dew Point: 63°F , 17°C
Humidity: 48%
Barometer: 29.98 inHg , 1015.2 hPa
Clouds: Clear
Visibility: 10 miles , 16 km
2019/09/19 21:19 KPNM 192119Z AUTO 00000KT 10SM CLR 29/17 A2998 RMK AO2
 
K21D - Lake Elmo, Minnesota, USA
Distance from station: ESE 28mi, 46km
Updated: 09/19/2019 4:17pm
Clear
Clear
 Wind from calm
Wind: Calm
Temperature: 81°F , 27°C
Heat Index: 82°F , 28°C
Dew Point: 63°F , 17°C
Humidity: 54%
Barometer: 29.99 inHg , 1015.6 hPa
Clouds: Clear
Visibility: 10 miles , 16 km
2019/09/19 21:17 K21D 192117Z AUTO 00000KT 10SM CLR 27/17 A2999 RMK AO2
KSGS - South St Paul, Minnesota, USA
Distance from station: SE 28mi, 46km
Updated: 09/19/2019 4:15pm
Clear
Clear
 Wind from ESE
Wind: ESE 3 mph , 6 km/h
Temperature: 81°F , 27°C
Heat Index: 82°F , 28°C
Dew Point: 63°F , 17°C
Humidity: 54%
Barometer: 29.97 inHg , 1014.9 hPa
Clouds: Clear
Visibility: 10 miles , 16 km
2019/09/19 21:15 KSGS 192115Z AUTO 12003KT 10SM CLR 27/17 A2997 RMK AO2 T02720171
 
KMGG - Maple Lake, Minnesota, USA
Distance from station: W 30mi, 48km
Updated: 09/19/2019 4:20pm

 Wind from calm
Wind: Calm
Temperature: 82°F , 28°C
Heat Index: 84°F , 29°C
Dew Point: 66°F , 19°C
Humidity: 58%
Barometer: 29.99 inHg , 1015.6 hPa
Visibility: 10 miles , 16 km
2019/09/19 21:20 KMGG 192120Z AUTO 00000KT 10SM 28/19 A2999 RMK AO2 T02790187
KOEO - Osceola, Wisconsin, USA
Distance from station: ENE 34mi, 55km
Updated: 09/19/2019 4:15pm
Clear
Clear
 Wind from calm
Wind: Calm
Temperature: 82°F , 28°C
Heat Index: 82°F , 28°C
Dew Point: 61°F , 16°C
Humidity: 48%
Barometer: 30.00 inHg , 1015.9 hPa
Clouds: Clear
Visibility: 10 miles , 16 km
2019/09/19 21:15 KOEO 192115Z AUTO 00000KT 10SM CLR 28/16 A3000 RMK AO2 T02760158
 
KLVN - Mnpls/Airlake, Minnesota, USA
Distance from station: S 39mi, 63km
Updated: 09/19/2019 3:55pm
Clear
Clear
 Wind from calm
Wind: Calm
Temperature: 82°F , 28°C
Heat Index: 84°F , 29°C
Dew Point: 66°F , 19°C
Humidity: 58%
Barometer: 29.98 inHg , 1015.2 hPa
Clouds: Clear
Visibility: 10 miles , 16 km
2019/09/19 20:55 KLVN 192055Z AUTO 00000KT 10SM CLR 28/19 A2998 RMK AO2
KRNH - New Richmond Mun, Wisconsin, USA
Distance from station: E 41mi, 66km
Updated: 09/19/2019 4:15pm
Clear
Clear
 Wind from calm
Wind: Calm
Temperature: 82°F , 28°C
Heat Index: 82°F , 28°C
Dew Point: 59°F , 15°C
Humidity: 45%
Barometer: 29.99 inHg , 1015.6 hPa
Clouds: Clear
Visibility: 10 miles , 16 km
2019/09/19 21:15 KRNH 192115Z AUTO 00000KT 10SM CLR 28/15 A2999 RMK AO2 T02800148
 
KROS - Rush City, Minnesota, USA
Distance from station: NNE 41mi, 66km
Updated: 09/19/2019 4:16pm
Clear
Clear
 Wind from SW
Wind: SW 3 mph , 6 km/h
Temperature: 81°F , 27°C
Heat Index: 82°F , 28°C
Dew Point: 61°F , 16°C
Humidity: 51%
Barometer: 29.98 inHg , 1015.2 hPa
Clouds: Clear
Visibility: 10 miles , 16 km
2019/09/19 21:16 KROS 192116Z AUTO 22003KT 10SM CLR 27/16 A2998 RMK AO2 T02710157
KSTC - St. Cloud, Minnesota, USA
Distance from station: NW 41mi, 67km
Updated: 09/19/2019 3:53pm
Clear
Clear
 Wind from varies
Wind: varies 5 mph , 7 km/h
Temperature: 82°F , 28°C
Heat Index: 82°F , 28°C
Dew Point: 59°F , 15°C
Humidity: 45%
Barometer: 29.98 inHg , 1015.2 hPa
Clouds: Clear
Visibility: 10 miles , 16 km
2019/09/19 20:53 KSTC 192053Z VRB04KT 10SM CLR 28/15 A2998 RMK AO2 SLP155 T02830150 56009
 
KGYL - Glencoe, Minnesota, USA
Distance from station: SW 46mi, 74km
Updated: 09/19/2019 4:16pm
Clear
Clear
 Wind from calm
Wind: Calm
Temperature: 82°F , 28°C
Heat Index: 83°F , 28°C
Dew Point: 63°F , 17°C
Humidity: 51%
Barometer: 29.97 inHg , 1014.9 hPa
Clouds: Clear
Visibility: 10 miles , 16 km
2019/09/19 21:16 KGYL 192116Z AUTO 00000KT 10SM CLR 28/17 A2997 RMK AO2 T02780174
KJMR - Mora, Minnesota, USA
Distance from station: N 48mi, 78km
Updated: 09/19/2019 4:15pm
Clear
Clear
 Wind from calm
Wind: Calm
Temperature: 79°F , 26°C
Dew Point: 59°F , 15°C
Humidity: 51%
Barometer: 30.00 inHg , 1015.9 hPa
Clouds: Clear
Visibility: 10 miles , 16 km
2019/09/19 21:15 KJMR 192115Z AUTO 00000KT 10SM CLR 26/15 A3000 RMK AO2